createdAt,value
2022-11-05T00:00:19.590Z,86.10
2022-11-05T00:03:21.484Z,86.30
2022-11-05T00:06:23.522Z,86.30
2022-11-05T00:09:25.532Z,86.30
2022-11-05T00:12:27.373Z,86.30
2022-11-05T00:15:29.151Z,85.90
2022-11-05T00:18:31.224Z,86.60
2022-11-05T00:21:37.789Z,86.30
2022-11-05T00:24:39.694Z,86.40
2022-11-05T00:27:41.690Z,86.60
2022-11-05T00:30:43.720Z,87.00
2022-11-05T00:33:45.802Z,86.70
2022-11-05T00:36:48.185Z,86.40
2022-11-05T00:39:50.097Z,86.40
2022-11-05T00:42:52.122Z,87.00
2022-11-05T00:45:54.020Z,87.20
2022-11-05T00:48:56.189Z,87.40
2022-11-05T00:51:58.069Z,87.40
2022-11-05T00:55:04.001Z,87.20
2022-11-05T00:58:11.497Z,87.20
2022-11-05T01:01:16.000Z,87.30
2022-11-05T01:04:17.971Z,87.20
2022-11-05T01:07:19.951Z,87.50
2022-11-05T01:10:21.857Z,87.50
2022-11-05T01:13:27.073Z,87.20
2022-11-05T01:16:29.945Z,87.00
2022-11-05T01:19:31.850Z,87.00
2022-11-05T01:22:33.966Z,87.00
2022-11-05T01:25:36.108Z,87.10
2022-11-05T01:28:37.981Z,87.20
2022-11-05T01:31:39.890Z,87.70
2022-11-05T01:34:41.889Z,88.00
2022-11-05T01:37:43.765Z,87.50
2022-11-05T01:40:46.188Z,87.30
2022-11-05T01:43:53.457Z,87.80
2022-11-05T01:46:56.355Z,87.80
2022-11-05T01:50:01.680Z,87.90
2022-11-05T01:53:26.673Z,88.00
2022-11-05T01:56:51.511Z,87.80
2022-11-05T01:59:58.566Z,88.10
2022-11-05T02:03:01.455Z,87.40
2022-11-05T02:06:04.420Z,87.80
2022-11-05T02:09:15.927Z,88.10
2022-11-05T02:12:20.192Z,87.90
2022-11-05T02:15:39.985Z,87.90
2022-11-05T02:19:00.288Z,88.00
2022-11-05T02:22:23.568Z,88.00
2022-11-05T02:26:02.867Z,88.30
2022-11-05T02:29:41.486Z,87.80
2022-11-05T02:33:00.169Z,88.10
2022-11-05T02:36:23.404Z,88.20
2022-11-05T02:39:54.646Z,88.10
2022-11-05T02:43:05.906Z,87.90
2022-11-05T02:46:33.926Z,88.10
2022-11-05T02:49:53.067Z,88.20
2022-11-05T02:53:05.101Z,88.20
2022-11-05T02:56:17.828Z,88.00
2022-11-05T02:59:20.750Z,88.30
2022-11-05T03:02:22.696Z,88.40
2022-11-05T03:05:36.794Z,88.40
2022-11-05T03:09:16.317Z,88.20
2022-11-05T03:12:21.400Z,88.20
2022-11-05T03:15:50.817Z,88.70
2022-11-05T03:19:19.835Z,88.40
2022-11-05T03:22:41.552Z,88.30
2022-11-05T03:25:49.021Z,88.40
2022-11-05T03:29:04.162Z,88.40
2022-11-05T03:32:11.049Z,88.30
2022-11-05T03:35:30.654Z,88.50
2022-11-05T03:38:35.796Z,88.60
2022-11-05T03:41:40.943Z,88.20
2022-11-05T03:44:47.991Z,88.20
2022-11-05T03:47:54.547Z,87.60
2022-11-05T03:51:16.373Z,87.70
2022-11-05T03:54:18.297Z,87.70
2022-11-05T03:57:29.859Z,87.90
2022-11-05T04:00:32.230Z,87.90
2022-11-05T04:03:35.966Z,87.90
2022-11-05T04:06:38.162Z,88.00
2022-11-05T04:09:40.162Z,88.10
2022-11-05T04:12:42.495Z,88.10
2022-11-05T04:15:44.687Z,88.10
2022-11-05T04:18:46.593Z,88.10
2022-11-05T04:21:48.729Z,88.00
2022-11-05T04:24:50.604Z,88.00
2022-11-05T04:27:52.702Z,88.20
2022-11-05T04:30:54.497Z,88.20
2022-11-05T04:33:57.220Z,88.20
2022-11-05T04:36:59.142Z,87.30
2022-11-05T04:40:01.342Z,87.50
2022-11-05T04:43:03.714Z,86.10
2022-11-05T04:46:06.144Z,86.70
2022-11-05T04:49:08.259Z,85.70
2022-11-05T04:52:11.286Z,85.30
2022-11-05T04:55:16.385Z,85.60
2022-11-05T04:58:18.782Z,85.90
2022-11-05T05:01:23.083Z,84.90
2022-11-05T05:04:25.872Z,85.40
2022-11-05T05:07:28.231Z,85.80
2022-11-05T05:10:30.832Z,86.00
2022-11-05T05:13:33.122Z,85.50
2022-11-05T05:16:38.151Z,85.90
2022-11-05T05:19:40.814Z,86.50
2022-11-05T05:22:42.943Z,86.60
2022-11-05T05:25:45.122Z,86.50
2022-11-05T05:28:47.034Z,85.10
2022-11-05T05:31:48.963Z,85.80
2022-11-05T05:34:51.795Z,86.60
2022-11-05T05:37:56.884Z,86.20
2022-11-05T05:41:00.589Z,86.80
2022-11-05T05:44:05.666Z,86.50
2022-11-05T05:47:07.557Z,86.00
2022-11-05T05:50:09.530Z,86.60
2022-11-05T05:53:11.727Z,86.80
2022-11-05T05:56:14.004Z,87.00
2022-11-05T05:59:15.907Z,86.60
2022-11-05T06:02:18.138Z,87.40
2022-11-05T06:05:20.120Z,86.60
2022-11-05T06:08:21.995Z,87.00
2022-11-05T06:11:24.899Z,86.70
2022-11-05T06:14:26.869Z,86.20
2022-11-05T06:21:20.999Z,86.90
2022-11-05T06:24:23.151Z,87.10
2022-11-05T06:27:25.315Z,87.10
2022-11-05T06:33:43.632Z,87.10
2022-11-05T06:36:45.532Z,87.20
2022-11-05T06:39:47.511Z,86.80
2022-11-05T06:42:52.843Z,87.10
2022-11-05T06:45:55.921Z,87.10
2022-11-05T06:48:58.293Z,86.70
2022-11-05T06:52:00.468Z,86.50
2022-11-05T06:55:02.607Z,86.30
2022-11-05T06:58:04.676Z,86.30
2022-11-05T07:01:09.373Z,86.10
2022-11-05T07:07:22.461Z,85.60
2022-11-05T07:10:24.541Z,85.30
2022-11-05T07:13:29.555Z,85.10
2022-11-05T07:16:31.591Z,85.10
2022-11-05T07:19:34.056Z,84.70
2022-11-05T07:22:36.954Z,86.00
2022-11-05T07:25:39.297Z,85.90
2022-11-05T07:28:41.630Z,85.40
2022-11-05T07:31:43.634Z,86.10
2022-11-05T07:34:45.656Z,85.20
2022-11-05T07:37:49.758Z,85.00
2022-11-05T07:47:15.456Z,85.40
2022-11-05T07:50:19.209Z,85.90
2022-11-05T07:53:25.064Z,85.60
2022-11-05T07:56:27.004Z,86.00
2022-11-05T07:59:28.915Z,85.20
2022-11-05T08:02:33.191Z,86.20
2022-11-05T08:05:43.726Z,85.90
2022-11-05T08:08:45.659Z,86.00
2022-11-05T08:11:47.542Z,85.60
2022-11-05T08:14:49.523Z,86.00
2022-11-05T08:18:06.680Z,85.20
2022-11-05T08:21:08.805Z,85.30
2022-11-05T08:24:10.928Z,85.00
2022-11-05T08:27:12.928Z,85.40
2022-11-05T08:30:14.934Z,84.90
2022-11-05T08:33:17.618Z,85.60
2022-11-05T08:36:19.555Z,84.90
2022-11-05T08:39:21.613Z,84.60
2022-11-05T08:42:23.730Z,84.50
2022-11-05T08:45:27.542Z,85.10
2022-11-05T08:52:09.818Z,83.20
2022-11-05T08:55:11.715Z,82.80
2022-11-05T08:58:15.863Z,83.20
2022-11-05T09:01:17.851Z,83.20
2022-11-05T09:04:19.869Z,82.70
2022-11-05T09:07:21.770Z,82.40
2022-11-05T09:10:23.881Z,80.90
2022-11-05T09:13:26.370Z,81.60
2022-11-05T09:16:28.626Z,82.10
2022-11-05T09:19:30.605Z,80.80
2022-11-05T09:22:32.640Z,80.60
2022-11-05T09:25:37.523Z,81.70
2022-11-05T09:28:40.180Z,82.00
2022-11-05T09:31:42.558Z,80.70
2022-11-05T09:34:44.581Z,80.20
2022-11-05T09:37:46.525Z,79.00
2022-11-05T09:41:08.420Z,80.20
2022-11-05T09:44:18.764Z,78.70
2022-11-05T09:47:35.704Z,80.40
2022-11-05T09:50:42.823Z,80.50
2022-11-05T09:53:45.982Z,78.90
2022-11-05T09:56:47.913Z,77.20
2022-11-05T10:03:13.787Z,75.50
2022-11-05T10:06:25.117Z,75.70
2022-11-05T10:09:32.634Z,72.00
2022-11-05T10:12:41.009Z,71.80
2022-11-05T10:15:53.206Z,73.30
2022-11-05T10:19:17.108Z,74.50
2022-11-05T10:22:19.946Z,74.30
2022-11-05T10:25:24.728Z,74.50
2022-11-05T10:28:31.262Z,74.30
2022-11-05T10:31:37.132Z,75.00
2022-11-05T10:38:13.921Z,75.10
2022-11-05T10:41:46.975Z,73.30
2022-11-05T10:45:06.523Z,72.70
2022-11-05T10:48:26.217Z,73.50
2022-11-05T10:51:28.727Z,73.60
2022-11-05T10:54:34.546Z,71.10
2022-11-05T10:57:39.688Z,72.80
2022-11-05T11:00:52.414Z,73.80
2022-11-05T11:04:08.325Z,73.80
2022-11-05T11:07:22.215Z,73.60
2022-11-05T11:10:25.779Z,71.70
2022-11-05T11:13:49.612Z,73.60
2022-11-05T11:16:51.827Z,73.30
2022-11-05T11:20:16.227Z,72.60
2022-11-05T11:23:18.475Z,74.20
2022-11-05T11:26:21.124Z,75.10
2022-11-05T11:29:26.652Z,74.70
2022-11-05T11:32:37.720Z,72.70
2022-11-05T11:35:46.406Z,71.40
2022-11-05T11:38:48.305Z,73.70
2022-11-05T11:41:53.615Z,73.90
2022-11-05T11:44:57.632Z,74.20
2022-11-05T11:48:09.518Z,72.40
2022-11-05T12:03:33.461Z,74.50
2022-11-05T12:06:50.500Z,74.30
2022-11-05T12:10:00.909Z,76.10
2022-11-05T12:13:33.096Z,77.50
2022-11-05T12:17:14.778Z,75.50
2022-11-05T12:20:34.464Z,75.20
2022-11-05T12:24:15.062Z,73.80
2022-11-05T12:27:41.499Z,73.10
2022-11-05T12:31:16.264Z,74.10
2022-11-05T12:34:56.980Z,69.50
2022-11-05T12:38:36.756Z,70.90
2022-11-05T12:42:03.680Z,70.90
2022-11-05T12:45:21.704Z,69.70
2022-11-05T12:48:44.636Z,71.70
2022-11-05T12:52:23.090Z,72.30
2022-11-05T12:58:41.425Z,70.80
2022-11-05T13:01:49.154Z,70.30
2022-11-05T13:04:59.728Z,69.30
2022-11-05T13:08:42.639Z,70.40
2022-11-05T13:11:48.391Z,70.20
2022-11-05T13:15:14.261Z,70.50
2022-11-05T13:18:23.690Z,70.10
2022-11-05T13:21:28.500Z,70.90
2022-11-05T13:24:39.797Z,70.50
2022-11-05T13:27:46.438Z,70.30
2022-11-05T13:30:54.626Z,70.40
2022-11-05T13:34:04.723Z,68.70
2022-11-05T13:37:08.553Z,69.60
2022-11-05T13:40:13.867Z,68.30
2022-11-05T13:43:33.958Z,68.40
2022-11-05T13:46:56.906Z,68.80
2022-11-05T13:49:58.721Z,67.80
2022-11-05T13:53:09.601Z,68.70
2022-11-05T13:56:36.142Z,68.40
2022-11-05T14:00:19.445Z,69.20
2022-11-05T14:03:22.121Z,68.30
2022-11-05T14:06:36.420Z,68.80
2022-11-05T14:09:40.292Z,69.30
2022-11-05T14:12:48.235Z,68.40
2022-11-05T14:16:09.329Z,67.60
2022-11-05T14:19:20.872Z,69.20
2022-11-05T14:22:31.909Z,69.80
2022-11-05T14:25:36.679Z,70.20
2022-11-05T14:29:14.790Z,71.00
2022-11-05T14:32:22.753Z,70.20
2022-11-05T14:35:38.018Z,70.40
2022-11-05T14:38:50.666Z,71.70
2022-11-05T14:42:03.771Z,70.90
2022-11-05T14:45:21.598Z,70.70
2022-11-05T14:48:37.429Z,71.10
2022-11-05T14:51:44.744Z,69.90
2022-11-05T14:54:51.239Z,70.60
2022-11-05T14:57:53.049Z,70.50
2022-11-05T15:01:03.883Z,72.20
2022-11-05T15:04:26.169Z,70.70
2022-11-05T15:07:37.487Z,73.00
2022-11-05T15:10:40.651Z,73.00
2022-11-05T15:14:09.493Z,73.50
2022-11-05T15:17:22.675Z,72.50
2022-11-05T15:20:48.415Z,72.40
2022-11-05T15:23:55.224Z,71.40
2022-11-05T15:27:23.991Z,73.00
2022-11-05T15:30:26.706Z,73.20
2022-11-05T15:33:29.189Z,73.10
2022-11-05T15:36:32.092Z,73.30
2022-11-05T15:39:39.340Z,74.20
2022-11-05T15:42:41.355Z,74.40
2022-11-05T15:45:51.374Z,75.00
2022-11-05T15:48:57.686Z,75.40
2022-11-05T15:52:00.072Z,73.80
2022-11-05T15:55:12.800Z,75.10
2022-11-05T15:58:14.765Z,75.00
2022-11-05T16:01:23.346Z,75.00
2022-11-05T16:04:29.950Z,75.90
2022-11-05T16:07:31.918Z,76.30
2022-11-05T16:10:38.139Z,75.60
2022-11-05T16:13:41.837Z,76.70
2022-11-05T16:16:44.936Z,76.00
2022-11-05T16:19:47.527Z,77.40
2022-11-05T16:22:52.025Z,76.80
2022-11-05T16:25:57.427Z,77.40
2022-11-05T16:29:10.144Z,77.10
2022-11-05T16:32:31.713Z,77.80
2022-11-05T16:35:33.956Z,79.00
2022-11-05T16:38:35.873Z,80.20
2022-11-05T16:41:42.943Z,80.40
2022-11-05T16:44:44.884Z,80.60
2022-11-05T16:47:47.513Z,80.30
2022-11-05T16:50:49.546Z,80.60
2022-11-05T16:53:51.523Z,81.20
2022-11-05T16:56:53.829Z,80.80
2022-11-05T16:59:56.689Z,80.70
2022-11-05T17:02:58.723Z,81.20
2022-11-05T17:06:00.726Z,81.30
2022-11-05T17:09:02.653Z,81.60
2022-11-05T17:12:04.803Z,81.60
2022-11-05T17:15:17.078Z,81.00
2022-11-05T17:18:20.522Z,81.00
2022-11-05T17:21:22.880Z,81.20
2022-11-05T17:24:25.005Z,81.10
2022-11-05T17:27:26.934Z,81.30
2022-11-05T17:30:29.493Z,80.90
2022-11-05T17:33:31.980Z,79.80
2022-11-05T17:36:40.091Z,79.40
2022-11-05T17:39:42.012Z,79.20
2022-11-05T17:45:52.328Z,78.50
2022-11-05T17:48:54.239Z,78.80
2022-11-05T17:51:56.217Z,78.90
2022-11-05T17:54:58.123Z,80.00
2022-11-05T17:58:00.031Z,80.00
2022-11-05T18:01:02.394Z,80.30
2022-11-05T18:04:08.960Z,80.50
2022-11-05T18:07:11.192Z,79.60
2022-11-05T18:10:15.888Z,79.20
2022-11-05T18:13:17.756Z,79.00
2022-11-05T18:16:26.342Z,78.70
2022-11-05T18:19:28.382Z,78.10
2022-11-05T18:22:30.561Z,77.70
2022-11-05T18:25:32.558Z,78.10
2022-11-05T18:28:34.579Z,78.30
2022-11-05T18:31:36.449Z,77.50
2022-11-05T18:34:38.418Z,79.10
2022-11-05T18:37:40.590Z,79.30
2022-11-05T18:40:42.488Z,79.00
2022-11-05T18:43:44.965Z,79.20
2022-11-05T18:47:02.149Z,79.40
2022-11-05T18:50:05.967Z,80.00
2022-11-05T18:53:07.918Z,79.00
2022-11-05T18:56:11.996Z,79.60
2022-11-05T18:59:36.314Z,79.80
2022-11-05T19:02:40.124Z,79.60
2022-11-05T19:05:42.122Z,79.20
2022-11-05T19:08:44.520Z,79.70
2022-11-05T19:11:46.485Z,79.80
2022-11-05T19:14:48.359Z,79.90
2022-11-05T19:17:50.182Z,80.60
2022-11-05T19:20:52.087Z,81.40
2022-11-05T19:23:54.268Z,81.50
2022-11-05T19:26:56.564Z,81.50
2022-11-05T19:29:58.411Z,81.60
2022-11-05T19:33:00.402Z,81.60
2022-11-05T19:36:05.581Z,81.30
2022-11-05T19:39:09.380Z,81.50
2022-11-05T19:42:11.274Z,81.10
2022-11-05T19:48:35.864Z,80.70
2022-11-05T19:51:37.865Z,80.90
2022-11-05T19:54:42.274Z,81.00
2022-11-05T19:57:44.104Z,80.60
2022-11-05T20:00:46.005Z,81.20
2022-11-05T20:03:48.537Z,81.20
2022-11-05T20:06:50.491Z,82.20
2022-11-05T20:09:52.406Z,82.60
2022-11-05T20:12:54.317Z,83.00
2022-11-05T20:15:56.223Z,83.20
2022-11-05T20:18:58.258Z,83.90
2022-11-05T20:22:00.425Z,84.20
2022-11-05T20:25:02.411Z,83.60
2022-11-05T20:28:05.144Z,83.10
2022-11-05T20:31:08.056Z,82.70
2022-11-05T20:34:09.985Z,82.50
2022-11-05T20:37:11.883Z,81.90
2022-11-05T20:40:16.248Z,81.80
2022-11-05T20:43:18.107Z,82.30
2022-11-05T20:46:21.973Z,82.30
2022-11-05T20:49:25.674Z,83.10
2022-11-05T20:52:28.262Z,81.80
2022-11-05T20:55:30.203Z,82.30
2022-11-05T20:58:32.575Z,81.90
2022-11-05T21:01:35.224Z,82.00
2022-11-05T21:04:37.331Z,81.70
2022-11-05T21:07:39.198Z,82.50
2022-11-05T21:10:43.105Z,82.30
2022-11-05T21:13:47.732Z,82.20
2022-11-05T21:16:49.753Z,83.10
2022-11-05T21:19:51.546Z,82.80
2022-11-05T21:22:53.464Z,82.70
2022-11-05T21:25:55.613Z,82.50
2022-11-05T21:28:57.524Z,82.50
2022-11-05T21:31:59.399Z,82.40
2022-11-05T21:35:01.661Z,82.50
2022-11-05T21:38:03.598Z,82.70
2022-11-05T21:41:06.111Z,82.70
2022-11-05T21:44:08.123Z,82.30
2022-11-05T21:47:13.900Z,82.40
2022-11-05T21:50:20.851Z,83.00
2022-11-05T21:53:23.995Z,83.00
2022-11-05T21:56:27.246Z,83.50
2022-11-05T21:59:29.746Z,83.70
2022-11-05T22:02:31.996Z,83.60
2022-11-05T22:05:34.265Z,83.60
2022-11-05T22:08:39.468Z,83.20
2022-11-05T22:11:41.364Z,83.10
2022-11-05T22:14:43.415Z,82.90
2022-11-05T22:17:49.660Z,82.50
2022-11-05T22:20:51.573Z,82.30
2022-11-05T22:23:54.029Z,82.50
2022-11-05T22:26:56.105Z,82.40
2022-11-05T22:29:57.988Z,82.50
2022-11-05T22:33:00.316Z,82.20
2022-11-05T22:36:04.231Z,82.50
2022-11-05T22:39:06.975Z,82.20
2022-11-05T22:42:09.063Z,82.40
2022-11-05T22:45:13.594Z,82.40
2022-11-05T22:48:15.868Z,82.00
2022-11-05T22:51:31.696Z,82.20
2022-11-05T22:54:38.880Z,83.30
2022-11-05T22:57:41.287Z,83.20
2022-11-05T23:00:43.324Z,82.50
2022-11-05T23:03:46.923Z,82.60
2022-11-05T23:06:48.755Z,82.50
2022-11-05T23:09:50.758Z,82.60
2022-11-05T23:12:55.133Z,82.50
2022-11-05T23:15:56.981Z,82.40
2022-11-05T23:19:01.087Z,82.70
2022-11-05T23:22:03.179Z,83.30
2022-11-05T23:25:06.816Z,83.00
2022-11-05T23:28:10.415Z,83.10
2022-11-05T23:31:12.858Z,82.70
2022-11-05T23:34:14.779Z,82.80
2022-11-05T23:37:16.706Z,82.70
2022-11-05T23:40:26.315Z,83.50
2022-11-05T23:43:28.272Z,83.20
2022-11-05T23:46:30.152Z,83.20
2022-11-05T23:49:32.257Z,83.00
2022-11-05T23:52:34.164Z,82.90
2022-11-05T23:55:36.645Z,83.40
2022-11-05T23:58:39.457Z,83.60
